Time;durP1;ratioP1;P1;durP2;ratioP2;P2;SDS_P1;SDS_P2;PMS_P1;PMS_P2;Temp;Humidity;BMP_temperature;BMP_pressure;BME280_temperature;BME280_humidity;BME280_pressure;Samples;Min_cycle;Max_cycle;Signal;HPM_P1;HPM_P2
2022/06/01 00:01:01;;;;;;;12.68;5.03;;;;;;;20.38;60.29;97877.00;5414167;26;20070;-78
2022/06/01 00:03:35;;;;;;;11.35;5.32;;;;;;;20.77;60.09;97874.56;5393521;26;20070;-78
2022/06/01 00:06:03;;;;;;;11.65;5.05;;;;;;;21.00;59.65;97881.25;5414141;26;20074;-78
2022/06/01 00:08:30;;;;;;;11.27;4.93;;;;;;;21.31;59.41;97878.56;5413689;26;20347;-78
2022/06/01 00:10:58;;;;;;;10.32;5.22;;;;;;;20.80;61.66;97879.53;5413482;26;20112;-78
2022/06/01 00:13:26;;;;;;;10.40;5.10;;;;;;;20.02;63.48;97880.13;5414066;26;20371;-78
2022/06/01 00:15:54;;;;;;;16.05;6.37;;;;;;;20.48;62.66;97880.53;5394067;26;20051;-78
2022/06/01 00:18:22;;;;;;;11.38;5.25;;;;;;;20.41;63.06;97881.97;5413396;26;20058;-78
2022/06/01 00:20:50;;;;;;;14.25;5.97;;;;;;;20.24;63.97;97869.50;5413594;26;20119;-78
2022/06/01 00:23:18;;;;;;;15.25;6.22;;;;;;;20.89;62.47;97873.50;5414072;26;20129;-79
2022/06/01 00:25:46;;;;;;;13.95;6.47;;;;;;;21.22;61.36;97876.72;5413589;26;20067;-78
2022/06/01 00:28:13;;;;;;;13.20;5.45;;;;;;;21.77;59.49;97877.03;5413623;26;20043;-78
2022/06/01 00:30:40;;;;;;;12.15;4.95;;;;;;;21.35;61.33;97879.94;5413841;26;20118;-78
2022/06/01 00:33:08;;;;;;;10.93;5.28;;;;;;;21.54;59.72;97873.87;5413590;26;20482;-78
2022/06/01 00:35:35;;;;;;;11.20;5.53;;;;;;;21.47;60.15;97867.50;5413987;26;20382;-78
2022/06/01 00:38:02;;;;;;;10.90;4.90;;;;;;;21.80;59.12;97867.09;5413564;26;20127;-79
2022/06/01 00:40:32;;;;;;;9.77;4.55;;;;;;;22.29;57.68;97864.38;5413632;26;20070;-78
2022/06/01 00:43:01;;;;;;;11.40;5.07;;;;;;;22.17;56.37;97872.44;5413899;26;20106;-78
2022/06/01 00:45:30;;;;;;;10.40;5.00;;;;;;;21.94;57.06;97871.91;5413753;26;20043;-79
2022/06/01 00:47:57;;;;;;;11.95;5.12;;;;;;;21.40;59.12;97867.25;5394103;26;20043;-78
2022/06/01 00:50:28;;;;;;;17.02;5.40;;;;;;;21.30;59.80;97862.00;5415107;26;20119;-78
2022/06/01 00:53:02;;;;;;;11.48;5.45;;;;;;;21.88;58.54;97855.88;5394191;26;20118;-78
2022/06/01 00:55:46;;;;;;;10.88;5.50;;;;;;;21.85;59.36;97862.25;5414977;26;20059;-79
2022/06/01 00:58:19;;;;;;;12.25;6.00;;;;;;;22.52;58.03;97863.06;5414675;26;20074;-78
2022/06/01 01:00:48;;;;;;;12.50;6.07;;;;;;;21.94;59.93;97864.03;5414073;26;20064;-78
2022/06/01 01:03:16;;;;;;;13.18;6.40;;;;;;;21.62;60.94;97859.09;5394515;26;20090;-78
2022/06/01 01:05:48;;;;;;;13.60;5.45;;;;;;;21.77;61.09;97862.13;5414630;26;20044;-79
2022/06/01 01:08:15;;;;;;;11.38;5.55;;;;;;;22.26;59.98;97865.50;5394011;26;20078;-79
2022/06/01 01:10:43;;;;;;;13.70;7.25;;;;;;;22.03;59.50;97861.53;5414593;26;20079;-79
2022/06/01 01:13:14;;;;;;;11.00;5.28;;;;;;;21.50;61.10;97869.88;5414393;26;20074;-79
2022/06/01 01:15:51;;;;;;;15.20;5.68;;;;;;;21.66;60.15;97865.72;5394764;26;20055;-79
2022/06/01 01:18:22;;;;;;;11.95;5.50;;;;;;;21.83;59.93;97872.06;5394187;26;20043;-79
2022/06/01 01:21:17;;;;;;;11.25;5.28;;;;;;;20.70;64.35;97871.62;5413763;26;20067;-78
2022/06/01 01:24:13;;;;;;;14.00;5.75;;;;;;;21.39;62.73;97868.22;5394564;26;20090;-78
2022/06/01 01:26:42;;;;;;;11.40;5.25;;;;;;;20.23;67.49;97865.22;5394646;26;20102;-78
2022/06/01 01:29:10;;;;;;;12.82;6.30;;;;;;;20.48;67.26;97862.19;5413933;26;20106;-78
2022/06/01 01:31:39;;;;;;;12.75;5.62;;;;;;;22.13;61.30;97867.63;5414523;26;20079;-78
2022/06/01 01:34:07;;;;;;;13.52;6.60;;;;;;;21.57;63.56;97865.72;5414637;26;20056;-78
2022/06/01 01:36:48;;;;;;;11.93;5.85;;;;;;;21.78;63.06;97863.78;5414318;26;20043;-79
2022/06/01 01:39:15;;;;;;;14.95;6.95;;;;;;;22.04;62.40;97866.66;5414642;26;20102;-79
2022/06/01 01:41:50;;;;;;;15.35;7.93;;;;;;;22.16;62.53;97848.94;5414014;26;20055;-79
2022/06/01 01:44:30;;;;;;;13.68;7.10;;;;;;;21.65;64.41;97850.09;5394296;26;20126;-79
2022/06/01 01:46:58;;;;;;;13.57;6.43;;;;;;;22.39;61.94;97847.62;5394496;26;20110;-79
2022/06/01 01:49:30;;;;;;;13.18;6.70;;;;;;;22.42;61.70;97855.19;5413962;26;20070;-78
2022/06/01 01:52:00;;;;;;;12.95;7.03;;;;;;;22.95;59.81;97862.44;5428872;26;20085;-78
2022/06/01 01:54:45;;;;;;;15.88;7.68;;;;;;;23.06;59.45;97853.53;5437626;26;20054;-78
2022/06/01 01:57:24;;;;;;;18.37;8.77;;;;;;;23.14;59.41;97860.69;5417636;26;20061;-78
2022/06/01 02:00:17;;;;;;;21.17;9.48;;;;;;;22.96;60.14;97853.56;5437477;26;20121;-79
2022/06/01 02:03:05;;;;;;;17.12;8.43;;;;;;;23.01;60.50;97866.31;5414217;26;20078;-78
2022/06/01 02:08:38;;;;;;;17.60;8.40;;;;;;;22.36;62.54;97865.47;5397217;26;20061;-78
2022/06/01 02:14:29;;;;;;;20.58;9.65;;;;;;;23.19;60.56;97868.97;5414572;26;20407;-78
2022/06/01 02:17:01;;;;;;;19.77;9.70;;;;;;;23.64;60.04;97869.75;5401952;26;20060;-79
2022/06/01 02:19:33;;;;;;;23.20;10.07;;;;;;;23.60;60.63;97878.09;5414438;26;20058;-78
2022/06/01 02:22:00;;;;;;;21.80;9.45;;;;;;;22.95;62.94;97885.31;5413704;26;20066;-78
2022/06/01 02:24:27;;;;;;;18.35;9.23;;;;;;;23.81;59.86;97878.59;5413811;26;20115;-78
2022/06/01 02:26:56;;;;;;;17.30;9.15;;;;;;;24.25;58.40;97881.22;5394272;26;20071;-78
2022/06/01 02:29:30;;;;;;;17.05;8.45;;;;;;;24.25;58.20;97889.16;5414095;26;20111;-78
2022/06/01 02:31:57;;;;;;;14.13;7.07;;;;;;;23.82;60.00;97900.50;5413980;26;20138;-78
2022/06/01 02:34:25;;;;;;;14.00;7.53;;;;;;;21.78;65.07;97911.03;5414442;26;20107;-78
2022/06/01 02:36:52;;;;;;;17.98;9.43;;;;;;;20.80;67.73;97918.88;5414292;26;20608;-80
2022/06/01 02:39:19;;;;;;;18.30;9.65;;;;;;;20.16;72.29;97922.53;5413629;26;20055;-78
2022/06/01 02:44:32;;;;;;;13.88;7.55;;;;;;;19.49;78.33;97928.03;5414076;26;20131;-78
2022/06/01 02:46:59;;;;;;;15.73;7.05;;;;;;;19.88;75.80;97934.47;5414384;26;20055;-78
2022/06/01 02:49:26;;;;;;;15.20;6.37;;;;;;;20.64;72.34;97932.47;5412681;26;20067;-78
2022/06/01 02:51:53;;;;;;;11.07;4.93;;;;;;;20.20;73.99;97930.94;5413142;26;20043;-78
2022/06/01 02:54:20;;;;;;;8.82;3.58;;;;;;;20.33;72.45;97928.97;5414349;26;20144;-78
2022/06/01 02:56:48;;;;;;;7.18;3.22;;;;;;;19.03;76.33;97936.97;5414373;26;20110;-78
2022/06/01 02:59:15;;;;;;;8.00;3.22;;;;;;;19.22;75.63;97933.69;5413733;26;20126;-78
2022/06/01 03:01:43;;;;;;;8.13;3.10;;;;;;;19.48;74.02;97943.87;5414273;26;20181;-78
2022/06/01 03:04:10;;;;;;;9.75;3.40;;;;;;;20.03;72.02;97957.72;5414276;26;20063;-78
2022/06/01 03:06:37;;;;;;;7.62;3.12;;;;;;;19.04;76.30;97967.38;5413915;26;20110;-78
2022/06/01 03:09:23;;;;;;;8.00;3.30;;;;;;;18.89;76.28;97965.13;5413807;26;20098;-78
2022/06/01 03:11:50;;;;;;;7.80;3.10;;;;;;;19.09;76.28;97948.69;5413685;26;20109;-78
2022/06/01 03:14:17;;;;;;;9.18;3.12;;;;;;;19.13;75.77;97955.34;5408167;26;153233;-78
2022/06/01 03:16:45;;;;;;;5.15;2.50;;;;;;;18.94;74.94;97958.59;5414246;26;20119;-78
2022/06/01 03:19:13;;;;;;;5.95;2.50;;;;;;;19.87;71.60;97958.97;5413905;26;20059;-78
2022/06/01 03:21:40;;;;;;;6.43;2.60;;;;;;;19.14;73.03;97958.78;5413499;26;20094;-78
2022/06/01 03:24:08;;;;;;;5.75;2.37;;;;;;;17.74;79.08;97958.06;5414229;26;20070;-78
2022/06/01 03:26:35;;;;;;;5.30;2.30;;;;;;;18.44;76.64;97960.66;5414045;26;20114;-78
2022/06/01 03:29:03;;;;;;;4.93;2.55;;;;;;;18.83;74.14;97963.00;5414110;26;20069;-78
2022/06/01 03:31:33;;;;;;;7.72;2.50;;;;;;;18.82;74.14;97969.16;5413727;26;20055;-78
2022/06/01 03:34:00;;;;;;;5.87;2.50;;;;;;;19.13;73.51;97970.19;5414108;26;20051;-78
2022/06/01 03:36:27;;;;;;;5.18;2.50;;;;;;;19.10;73.11;97963.44;5414098;26;20208;-78
2022/06/01 03:38:54;;;;;;;5.43;2.70;;;;;;;18.16;77.44;97961.06;5413992;26;20051;-78
2022/06/01 03:41:22;;;;;;;4.57;2.50;;;;;;;19.75;71.03;97965.22;5413655;26;20477;-78
2022/06/01 03:46:35;;;;;;;6.22;2.20;;;;;;;20.93;66.64;97964.03;5414145;26;20400;-79
2022/06/01 03:49:02;;;;;;;5.28;2.20;;;;;;;22.30;61.52;97955.41;5413430;26;20059;-78
2022/06/01 03:51:29;;;;;;;5.12;2.20;;;;;;;23.08;58.37;97954.22;5413771;26;20098;-79
2022/06/01 03:53:56;;;;;;;4.45;2.12;;;;;;;23.64;55.86;97955.84;5414114;26;20074;-78
2022/06/01 03:56:23;;;;;;;3.25;1.92;;;;;;;24.34;52.77;97961.22;5413745;26;20060;-79
2022/06/01 03:58:51;;;;;;;3.55;1.77;;;;;;;24.65;50.93;97953.66;5412397;26;20432;-78
2022/06/01 04:01:19;;;;;;;3.67;1.83;;;;;;;24.57;51.21;97957.13;5413959;26;20453;-79
2022/06/01 04:03:46;;;;;;;5.72;1.80;;;;;;;25.48;48.69;97954.69;5413590;26;20056;-78
2022/06/01 04:06:13;;;;;;;3.05;1.50;;;;;;;26.29;46.08;97958.44;5414081;26;20055;-79
2022/06/01 04:08:41;;;;;;;4.85;2.10;;;;;;;26.35;45.41;97953.28;5413319;26;20473;-79
2022/06/01 04:11:08;;;;;;;3.62;1.55;;;;;;;27.30;43.39;97961.34;5414047;26;20067;-79
2022/06/01 04:13:35;;;;;;;3.17;1.70;;;;;;;27.58;42.33;97970.47;5414031;26;20051;-79
2022/06/01 04:16:03;;;;;;;4.00;1.75;;;;;;;27.26;43.13;97970.62;5413535;26;20110;-78
2022/06/01 04:18:45;;;;;;;2.83;1.60;;;;;;;27.82;41.90;97972.16;5413917;26;20059;-79
2022/06/01 04:21:14;;;;;;;4.37;1.77;;;;;;;26.02;45.90;97972.81;5413961;26;20073;-79
2022/06/01 04:23:41;;;;;;;5.05;1.70;;;;;;;24.93;48.44;97965.72;5412866;26;20065;-78
2022/06/01 04:26:08;;;;;;;5.57;1.80;;;;;;;23.58;52.50;97962.53;5413981;26;20063;-78
2022/06/01 04:28:35;;;;;;;4.12;2.30;;;;;;;24.04;51.90;97968.56;5413665;26;20123;-78
2022/06/01 04:31:02;;;;;;;3.42;2.00;;;;;;;24.37;50.57;97980.22;5412850;26;20054;-78
2022/06/01 04:33:29;;;;;;;3.78;1.80;;;;;;;24.30;50.27;97987.03;5413834;26;20070;-78
2022/06/01 04:35:56;;;;;;;8.07;2.00;;;;;;;22.90;54.77;97992.78;5413810;26;20426;-78
2022/06/01 04:38:22;;;;;;;4.43;1.75;;;;;;;21.32;60.77;97990.44;5413234;26;20055;-78
2022/06/01 04:40:50;;;;;;;4.25;2.12;;;;;;;21.59;60.22;97992.44;5413796;26;20102;-78
2022/06/01 04:43:20;;;;;;;3.78;1.87;;;;;;;21.97;59.48;97998.69;5413790;26;20111;-78
2022/06/01 04:45:53;;;;;;;3.67;1.80;;;;;;;22.74;56.91;98001.25;5413571;26;20055;-78
2022/06/01 04:48:22;;;;;;;5.05;1.90;;;;;;;22.42;57.26;98007.66;5413497;26;20357;-78
2022/06/01 04:50:50;;;;;;;4.35;2.08;;;;;;;22.05;58.49;98001.47;5393019;26;20043;-78
2022/06/01 04:53:17;;;;;;;2.42;1.70;;;;;;;22.56;56.70;98008.22;5393641;26;20119;-79
2022/06/01 04:55:46;;;;;;;4.32;1.77;;;;;;;21.26;61.85;98004.91;5413848;26;20111;-79
2022/06/01 04:58:13;;;;;;;2.90;1.62;;;;;;;23.15;55.64;98001.81;5393006;26;20090;-78
2022/06/01 05:00:41;;;;;;;3.22;1.73;;;;;;;24.27;51.26;98008.44;5413707;26;20169;-78
2022/06/01 05:03:09;;;;;;;5.12;1.75;;;;;;;24.52;50.80;98012.13;5413685;26;20327;-78
2022/06/01 05:05:37;;;;;;;4.53;1.50;;;;;;;24.44;50.38;98002.34;5413285;26;20106;-79
2022/06/01 05:08:11;;;;;;;2.65;1.60;;;;;;;24.97;49.20;98011.91;5413667;26;20055;-79
2022/06/01 05:10:39;;;;;;;2.20;1.60;;;;;;;25.01;48.62;98001.88;5413386;26;20065;-78
2022/06/01 05:13:07;;;;;;;2.97;1.60;;;;;;;24.33;49.34;98007.03;5413158;26;20087;-78
2022/06/01 05:15:34;;;;;;;2.72;1.48;;;;;;;25.16;47.36;98002.13;5413652;26;20056;-79
2022/06/01 05:18:02;;;;;;;7.72;1.77;;;;;;;25.34;46.42;98006.34;5413502;26;20130;-79
2022/06/01 05:20:29;;;;;;;3.72;1.50;;;;;;;24.84;47.24;98000.94;5413204;26;20106;-79
2022/06/01 05:22:55;;;;;;;6.72;1.48;;;;;;;24.59;47.74;97999.97;5413464;26;20417;-79
2022/06/01 05:25:22;;;;;;;2.22;1.35;;;;;;;24.81;46.51;97998.63;5413500;26;20502;-79
2022/06/01 05:27:50;;;;;;;1.62;1.10;;;;;;;24.73;46.82;97995.94;5412881;26;20478;-79
2022/06/01 05:30:17;;;;;;;1.98;1.20;;;;;;;24.43;46.73;97991.94;5413525;26;20510;-79
2022/06/01 05:32:44;;;;;;;1.20;1.10;;;;;;;25.18;44.35;97994.88;5413529;26;20444;-79
2022/06/01 05:35:11;;;;;;;1.77;1.10;;;;;;;24.97;45.24;97997.88;5414469;26;20060;-79
2022/06/01 05:37:38;;;;;;;3.20;1.25;;;;;;;24.99;44.84;98002.03;5414527;26;20413;-79
2022/06/01 05:40:06;;;;;;;1.55;1.08;;;;;;;25.31;43.24;98003.19;5413841;26;20082;-78
2022/06/01 05:42:33;;;;;;;3.30;1.20;;;;;;;25.64;42.60;98004.13;5414414;26;20123;-78
2022/06/01 05:45:00;;;;;;;2.30;1.00;;;;;;;25.37;43.67;98016.56;5414067;26;20090;-77
2022/06/01 05:47:27;;;;;;;2.70;1.00;;;;;;;26.16;42.39;98028.53;5413725;26;20098;-77
2022/06/01 05:49:54;;;;;;;1.50;1.02;;;;;;;26.61;40.79;98021.94;5413949;26;20119;-77
2022/06/01 05:52:20;;;;;;;3.15;1.00;;;;;;;26.47;41.24;98025.22;5414024;26;20132;-77
2022/06/01 05:54:48;;;;;;;2.28;0.80;;;;;;;27.13;39.40;98018.87;5413871;26;20055;-78
2022/06/01 05:57:15;;;;;;;1.73;1.02;;;;;;;26.76;39.26;98009.66;5414264;26;20074;-78
2022/06/01 05:59:42;;;;;;;1.20;1.00;;;;;;;25.76;41.76;98017.88;5414114;26;20059;-78
2022/06/01 06:02:10;;;;;;;2.97;0.90;;;;;;;26.68;40.11;98022.88;5413850;26;20118;-78
2022/06/01 06:04:37;;;;;;;1.73;1.00;;;;;;;28.36;37.68;98019.84;5414326;26;20074;-78
2022/06/01 06:07:04;;;;;;;2.17;1.12;;;;;;;28.82;35.71;98025.09;5414219;26;20795;-78
2022/06/01 06:09:31;;;;;;;2.15;1.00;;;;;;;27.21;38.23;98013.50;5413649;26;20311;-78
2022/06/01 06:11:58;;;;;;;1.50;0.90;;;;;;;26.56;40.27;98028.69;5414792;26;20115;-78
2022/06/01 06:14:25;;;;;;;2.72;1.10;;;;;;;26.58;39.71;98026.72;5415464;26;20114;-78
2022/06/01 06:16:52;;;;;;;3.80;1.00;;;;;;;26.55;39.94;98033.16;5413795;26;20066;-79
2022/06/01 06:19:20;;;;;;;1.30;0.98;;;;;;;26.03;40.49;98027.34;5413807;26;20058;-78
2022/06/01 06:21:48;;;;;;;2.50;1.20;;;;;;;26.34;40.08;98036.28;5414239;26;20424;-79
2022/06/01 06:24:18;;;;;;;4.95;1.15;;;;;;;25.34;42.23;98024.81;5413821;26;20090;-79
2022/06/01 06:26:46;;;;;;;2.83;1.10;;;;;;;25.33;43.19;98032.91;5414184;26;20122;-81
2022/06/01 06:29:14;;;;;;;3.83;1.15;;;;;;;;;;5413433;26;20098;-80
2022/06/01 06:31:41;;;;;;;2.97;1.10;;;;;;;25.22;44.30;98043.75;5414126;26;20070;-80
2022/06/01 06:34:16;;;;;;;1.98;1.20;;;;;;;25.50;43.36;98039.88;5414244;26;20409;-78
2022/06/01 06:36:44;;;;;;;3.00;1.20;;;;;;;24.78;44.18;98036.72;5413795;26;20063;-78
2022/06/01 06:39:12;;;;;;;2.83;1.30;;;;;;;24.73;43.55;98046.06;5393956;26;20061;-79
2022/06/01 06:41:39;;;;;;;2.08;1.10;;;;;;;24.79;44.91;98053.38;5414286;26;20132;-79
2022/06/01 06:44:06;;;;;;;2.22;1.00;;;;;;;24.84;43.87;98048.44;5413860;26;20106;-79
2022/06/01 06:46:33;;;;;;;3.15;1.20;;;;;;;24.47;44.27;98046.88;5413546;26;20062;-79
2022/06/01 06:49:00;;;;;;;1.62;1.10;;;;;;;24.34;44.62;98050.87;5413820;26;20054;-78
2022/06/01 06:51:34;;;;;;;1.95;1.23;;;;;;;23.94;46.73;98049.50;5413229;26;20109;-78
2022/06/01 06:54:01;;;;;;;1.95;1.20;;;;;;;24.97;43.44;98050.66;5393807;26;20106;-78
2022/06/01 06:56:28;;;;;;;3.47;1.40;;;;;;;24.71;44.17;98048.88;5414023;26;20076;-77
2022/06/01 06:58:55;;;;;;;2.95;1.20;;;;;;;24.46;44.53;98045.22;5413438;26;20106;-78
2022/06/01 07:01:23;;;;;;;1.70;1.20;;;;;;;23.56;47.84;98048.72;5414168;26;20127;-78
2022/06/01 07:03:51;;;;;;;3.37;1.20;;;;;;;24.09;45.98;98057.72;5414002;26;20119;-78
2022/06/01 07:06:23;;;;;;;2.15;1.17;;;;;;;24.09;45.56;98060.34;5413703;26;20058;-79
2022/06/01 07:08:52;;;;;;;2.95;1.20;;;;;;;24.04;45.49;98049.44;5413644;26;20043;-79
2022/06/01 07:11:21;;;;;;;2.97;1.20;;;;;;;24.29;46.83;98064.50;5413529;26;20165;-79
2022/06/01 07:13:49;;;;;;;2.65;1.30;;;;;;;24.67;45.81;98063.34;5414024;26;20075;-79
2022/06/01 07:16:18;;;;;;;2.90;1.12;;;;;;;25.20;43.75;98064.19;5414068;26;20103;-79
2022/06/01 07:18:47;;;;;;;2.45;1.10;;;;;;;25.50;42.42;98066.31;5413437;26;20054;-79
2022/06/01 07:21:15;;;;;;;2.75;1.12;;;;;;;25.71;43.13;98068.56;5413908;26;20079;-79
2022/06/01 07:23:43;;;;;;;2.75;1.10;;;;;;;26.16;41.25;98078.78;5413925;26;20453;-79
2022/06/01 07:26:22;;;;;;;2.10;1.10;;;;;;;26.16;41.22;98085.88;5413487;26;20083;-79
2022/06/01 07:28:49;;;;;;;3.90;1.10;;;;;;;25.87;40.94;98084.47;5413905;26;20051;-79
2022/06/01 07:31:17;;;;;;;1.45;1.10;;;;;;;25.79;41.23;98086.25;5413899;26;20410;-78
2022/06/01 07:33:44;;;;;;;1.60;1.10;;;;;;;25.57;42.55;98085.00;5413589;26;20056;-78
2022/06/01 07:36:13;;;;;;;3.22;1.73;;;;;;;25.21;43.01;98082.53;5414060;26;20501;-78
2022/06/01 07:44:43;;;;;;;1.70;1.27;;;;;;;26.22;41.29;98090.50;5413917;26;20424;-77
2022/06/01 07:47:11;;;;;;;3.17;1.30;;;;;;;26.58;41.15;98098.97;5413672;26;20111;-77
2022/06/01 07:49:58;;;;;;;1.92;1.17;;;;;;;26.70;40.88;98100.31;5413586;26;20415;-78
2022/06/01 07:52:45;;;;;;;3.10;1.30;;;;;;;26.98;39.52;98095.47;5413047;26;20059;-77
2022/06/01 07:55:12;;;;;;;4.97;1.30;;;;;;;27.93;37.54;98104.31;5413427;26;20107;-77
2022/06/01 07:57:39;;;;;;;2.70;1.30;;;;;;;27.52;38.44;98105.47;5413663;26;20102;-77
2022/06/01 08:00:06;;;;;;;2.53;1.40;;;;;;;27.57;38.17;98100.50;5413691;26;20044;-78
2022/06/01 08:02:33;;;;;;;2.62;1.37;;;;;;;26.88;40.21;98099.31;5413796;26;20094;-77
2022/06/01 08:05:00;;;;;;;2.60;1.20;;;;;;;26.84;40.14;98103.28;5413862;26;20074;-77
2022/06/01 08:07:28;;;;;;;2.40;1.30;;;;;;;27.03;40.03;98106.44;5413317;26;20122;-77
2022/06/01 08:09:56;;;;;;;2.80;1.58;;;;;;;27.60;38.55;98108.09;5412097;26;20134;-77
2022/06/01 08:15:09;;;;;;;3.95;1.40;;;;;;;28.48;35.91;98108.66;5413170;26;20401;-77
2022/06/01 08:17:44;;;;;;;6.40;1.55;;;;;;;28.00;37.47;98111.59;5413723;26;20428;-77
2022/06/01 08:20:12;;;;;;;2.08;1.30;;;;;;;27.67;37.74;98111.75;5413561;26;20107;-77
2022/06/01 08:22:40;;;;;;;5.70;1.50;;;;;;;28.49;36.10;98099.69;5413363;26;20446;-78
2022/06/01 08:25:09;;;;;;;1.33;1.20;;;;;;;27.67;37.16;98117.87;5413777;26;20059;-78
2022/06/01 08:27:36;;;;;;;4.10;1.50;;;;;;;27.55;38.19;98116.56;5393346;26;20345;-78
2022/06/01 08:30:04;;;;;;;2.25;1.25;;;;;;;27.08;38.42;98117.34;5413083;26;20445;-77
2022/06/01 08:32:31;;;;;;;5.10;1.65;;;;;;;27.27;38.11;98118.81;5413519;26;20102;-77
2022/06/01 08:34:58;;;;;;;1.87;1.30;;;;;;;28.23;36.49;98123.06;5413659;26;20683;-77
2022/06/01 08:37:25;;;;;;;2.35;1.30;;;;;;;28.09;36.77;98123.81;5413245;26;20134;-78
2022/06/01 08:39:52;;;;;;;1.95;1.42;;;;;;;28.93;34.54;98130.91;5413539;26;20385;-77
2022/06/01 08:42:23;;;;;;;1.90;1.30;;;;;;;28.72;34.64;98126.22;5413152;26;20059;-77
2022/06/01 08:44:51;;;;;;;3.45;1.50;;;;;;;28.77;34.81;98134.47;5393799;26;20077;-78
2022/06/01 08:47:36;;;;;;;3.00;1.40;;;;;;;28.89;34.59;98137.56;5393310;26;20344;-78
2022/06/01 08:50:07;;;;;;;3.25;1.30;;;;;;;27.94;35.54;98127.19;5395861;26;20078;-78
2022/06/01 08:52:34;;;;;;;1.80;1.25;;;;;;;27.45;36.15;98129.19;5399303;26;20050;-77
2022/06/01 08:55:01;;;;;;;4.90;1.62;;;;;;;28.10;35.34;98133.44;5415965;26;20107;-78
2022/06/01 08:57:42;;;;;;;1.80;1.40;;;;;;;28.92;34.15;98139.84;5412966;26;20062;-78
2022/06/01 09:00:19;;;;;;;6.10;1.45;;;;;;;28.76;34.41;98137.31;5387720;26;20082;-78
2022/06/01 09:03:07;;;;;;;1.75;1.30;;;;;;;28.42;34.21;98135.91;5411113;26;20082;-77
2022/06/01 09:05:53;;;;;;;3.05;1.30;;;;;;;29.46;32.12;98147.66;5410398;26;20104;-78
2022/06/01 09:08:38;;;;;;;3.42;1.42;;;;;;;28.31;34.64;98138.97;5390338;26;20130;-78
2022/06/01 09:11:11;;;;;;;1.75;1.20;;;;;;;28.22;33.39;98142.63;5390699;26;20055;-78
2022/06/01 09:13:52;;;;;;;3.37;1.40;;;;;;;27.92;34.74;98145.09;5411948;26;20090;-78
2022/06/01 09:16:29;;;;;;;2.25;1.40;;;;;;;26.51;37.30;98142.97;5391851;26;20537;-78
2022/06/01 09:18:56;;;;;;;;;;;;;;;27.05;38.11;98148.63;5392316;26;20075;-78
2022/06/01 09:24:28;;;;;;;2.85;1.40;;;;;;;26.31;37.92;98152.19;5413906;26;20513;-78
2022/06/01 09:27:01;;;;;;;3.35;1.35;;;;;;;26.38;38.69;98151.41;5414309;26;20114;-78
2022/06/01 09:29:32;;;;;;;3.60;1.40;;;;;;;26.33;39.29;98152.84;5414321;26;20106;-78
2022/06/01 09:32:05;;;;;;;2.00;1.35;;;;;;;26.37;39.12;98157.69;5414010;26;20051;-78
2022/06/01 09:34:42;;;;;;;3.53;1.48;;;;;;;26.92;39.25;98157.06;5414447;26;20118;-78
2022/06/01 09:37:23;;;;;;;2.62;1.25;;;;;;;27.65;38.58;98162.28;5394270;26;20080;-78
2022/06/01 09:39:56;;;;;;;2.87;1.30;;;;;;;28.60;34.57;98161.31;5393747;26;20071;-78
2022/06/01 09:42:34;;;;;;;2.67;1.30;;;;;;;28.07;35.31;98163.75;5414367;26;20045;-78
2022/06/01 09:45:04;;;;;;;1.90;1.20;;;;;;;28.88;33.52;98161.59;5414282;26;20197;-79
2022/06/01 09:47:36;;;;;;;3.03;1.23;;;;;;;29.85;32.71;98165.97;5393768;26;20138;-79
2022/06/01 09:50:09;;;;;;;3.92;1.60;;;;;;;31.16;30.19;98180.09;5414200;26;20102;-78
2022/06/01 09:52:41;;;;;;;2.92;1.30;;;;;;;29.15;33.13;98168.22;5393465;26;20048;-79
2022/06/01 09:55:21;;;;;;;2.35;1.45;;;;;;;29.56;33.49;98168.62;5414414;26;20051;-79
2022/06/01 09:58:09;;;;;;;3.22;1.20;;;;;;;30.59;31.15;98163.16;5414066;26;20143;-79
2022/06/01 10:06:30;;;;;;;4.50;1.75;;;;;;;30.32;31.08;98158.59;5414289;26;20126;-79
2022/06/01 10:09:09;;;;;;;2.58;1.30;;;;;;;30.25;31.71;98153.19;5414010;26;20059;-82
2022/06/01 10:11:46;;;;;;;2.50;1.50;;;;;;;30.94;30.64;98163.31;5393761;26;20058;-82
2022/06/01 10:14:22;;;;;;;3.67;1.40;;;;;;;29.68;31.27;98161.88;5414004;26;20405;-81
2022/06/01 10:17:04;;;;;;;3.72;1.50;;;;;;;30.71;29.87;98166.19;5393994;26;20090;-82
2022/06/01 10:19:52;;;;;;;3.50;1.40;;;;;;;31.74;28.51;98167.38;5414052;26;20058;-82
2022/06/01 10:22:58;;;;;;;2.58;1.30;;;;;;;32.17;27.74;98168.84;5393757;26;20115;-82
2022/06/01 10:25:45;;;;;;;2.75;1.30;;;;;;;31.22;29.67;98163.34;5398592;26;20095;-81
2022/06/01 10:28:18;;;;;;;2.80;1.30;;;;;;;31.45;29.18;98174.59;5393579;26;20679;-82
2022/06/01 10:31:10;;;;;;;2.37;1.30;;;;;;;31.04;29.19;98171.78;5413771;26;20065;-82
2022/06/01 10:33:41;;;;;;;2.33;1.40;;;;;;;31.78;27.49;98168.66;5414306;26;20043;-82
2022/06/01 10:36:12;;;;;;;3.37;1.40;;;;;;;31.15;29.07;98165.09;5413621;26;20350;-82
2022/06/01 10:39:02;;;;;;;3.42;1.30;;;;;;;31.51;29.23;98167.66;5414278;26;20094;-80
2022/06/01 10:41:39;;;;;;;2.83;1.35;;;;;;;31.28;28.87;98163.41;5413817;26;20071;-80
2022/06/01 10:44:28;;;;;;;2.17;1.30;;;;;;;32.34;27.39;98161.34;5394021;26;20134;-80
2022/06/01 10:47:02;;;;;;;1.55;1.30;;;;;;;32.10;27.89;98167.16;5393850;26;20411;-81
2022/06/01 10:49:41;;;;;;;2.30;1.42;;;;;;;31.74;27.97;98167.38;5413744;26;20064;-81
2022/06/01 10:52:21;;;;;;;1.62;1.30;;;;;;;31.98;27.91;98158.91;5393514;26;20481;-81
2022/06/01 10:54:52;;;;;;;2.42;1.50;;;;;;;31.04;28.73;98161.97;5414225;26;20054;-82
2022/06/01 10:57:20;;;;;;;1.95;1.33;;;;;;;32.03;28.21;98155.66;5413677;26;20385;-81
2022/06/01 10:59:48;;;;;;;1.83;1.30;;;;;;;31.94;27.83;98157.66;5414002;26;20079;-81
2022/06/01 11:02:40;;;;;;;4.12;1.80;;;;;;;32.15;27.68;98164.72;5413928;26;20381;-81
2022/06/01 11:05:25;;;;;;;5.03;1.65;;;;;;;31.73;27.69;98163.87;5393996;26;20062;-81
2022/06/01 11:08:11;;;;;;;3.47;1.40;;;;;;;31.67;28.13;98167.34;5413954;26;20099;-82
2022/06/01 11:10:59;;;;;;;2.90;1.50;;;;;;;31.75;27.74;98169.88;5413453;26;20100;-82
2022/06/01 11:13:41;;;;;;;2.47;1.48;;;;;;;32.57;26.69;98158.28;5393842;26;20079;-82
2022/06/01 11:16:32;;;;;;;2.58;1.33;;;;;;;32.62;26.22;98155.00;5414234;26;20126;-82
2022/06/01 11:19:12;;;;;;;3.40;1.40;;;;;;;33.51;25.33;98160.81;5413800;26;20413;-82
2022/06/01 11:21:52;;;;;;;1.45;1.30;;;;;;;32.16;26.35;98161.03;5413919;26;20112;-82
2022/06/01 11:24:50;;;;;;;1.70;1.33;;;;;;;33.24;25.72;98154.63;5413827;26;20461;-82
2022/06/01 11:27:35;;;;;;;2.28;1.30;;;;;;;34.02;23.96;98154.69;5413949;26;20426;-82
2022/06/01 11:30:13;;;;;;;2.53;1.40;;;;;;;33.69;23.12;98151.28;5414010;26;20053;-82
2022/06/01 11:32:51;;;;;;;3.22;1.50;;;;;;;33.27;25.37;98140.84;5413213;26;20059;-82
2022/06/01 11:35:20;;;;;;;6.28;1.87;;;;;;;33.45;24.57;98140.22;5414281;26;20078;-82
2022/06/01 11:37:55;;;;;;;2.42;1.37;;;;;;;34.03;25.04;98136.75;5413352;26;20072;-81
2022/06/01 11:40:36;;;;;;;3.35;1.70;;;;;;;30.76;29.61;98140.63;5414048;26;20119;-82
2022/06/01 11:43:15;;;;;;;2.92;1.58;;;;;;;31.59;29.25;98143.50;5414147;26;20122;-81
2022/06/01 11:45:46;;;;;;;4.45;1.77;;;;;;;31.32;29.62;98142.53;5393408;26;20378;-82
2022/06/01 11:48:14;;;;;;;5.03;1.90;;;;;;;32.35;27.43;98136.28;5393980;26;20047;-82
2022/06/01 11:50:48;;;;;;;4.25;1.50;;;;;;;31.90;27.74;98133.22;5393642;26;20130;-81
2022/06/01 11:53:41;;;;;;;3.67;1.55;;;;;;;32.62;28.23;98141.66;5413846;26;20102;-82
2022/06/01 11:56:17;;;;;;;3.03;1.50;;;;;;;31.94;27.46;98131.81;5379370;26;20378;-81
2022/06/01 11:58:56;;;;;;;3.80;1.50;;;;;;;32.07;26.31;98133.69;5393056;26;20063;-81
2022/06/01 12:01:43;;;;;;;3.12;1.50;;;;;;;33.16;24.73;98138.81;5413510;26;20067;-81
2022/06/01 12:04:22;;;;;;;1.25;1.17;;;;;;;33.93;23.35;98134.56;5413468;26;20070;-81
2022/06/01 12:07:11;;;;;;;3.28;1.60;;;;;;;32.51;25.67;98130.53;5413497;26;20130;-81
2022/06/01 12:09:48;;;;;;;2.53;1.33;;;;;;;33.04;23.93;98130.59;5413872;26;20130;-81
2022/06/01 12:12:36;;;;;;;2.22;1.30;;;;;;;32.68;21.72;98130.16;5413494;26;20054;-82
2022/06/01 12:15:13;;;;;;;2.78;1.37;;;;;;;32.61;23.05;98129.31;5413385;26;20082;-82
2022/06/01 12:18:15;;;;;;;5.60;1.40;;;;;;;32.21;23.91;98119.34;5413597;26;20067;-82
2022/06/01 12:20:45;;;;;;;3.05;1.50;;;;;;;32.62;23.67;98129.09;5413172;26;20047;-82
2022/06/01 12:28:57;;;;;;;5.50;1.50;;;;;;;32.34;24.29;98115.94;5396067;26;20063;-81